createdAt,value
2019-01-15T04:06:34.339Z,92.60
2019-01-15T04:09:15.032Z,58.60
2019-01-15T04:11:56.288Z,58.80
2019-01-15T04:14:37.533Z,58.90
2019-01-15T04:17:18.164Z,59.30
2019-01-15T04:19:59.459Z,58.70
2019-01-15T04:22:40.291Z,59.00
2019-01-15T04:25:20.206Z,59.00
2019-01-15T04:28:00.880Z,58.60
2019-01-15T04:30:42.058Z,57.90
2019-01-15T04:33:22.720Z,57.40
2019-01-15T04:36:03.662Z,56.90
2019-01-15T04:38:45.453Z,56.40
2019-01-15T04:41:26.758Z,56.10
2019-01-15T04:44:08.107Z,55.70
2019-01-15T04:46:49.459Z,55.10
2019-01-15T04:49:30.621Z,54.90
2019-01-15T04:52:11.717Z,54.50
2019-01-15T04:54:52.404Z,55.10
2019-01-15T04:57:33.720Z,55.10
2019-01-15T05:00:14.897Z,55.70
2019-01-15T05:02:57.361Z,55.80
2019-01-15T05:05:38.282Z,56.10
2019-01-15T05:08:19.820Z,56.60
2019-01-15T05:11:01.334Z,56.70
2019-01-15T05:13:42.507Z,56.90
2019-01-15T05:16:22.037Z,57.10
2019-01-15T05:22:10.271Z,57.70
2019-01-15T05:24:51.549Z,58.40
2019-01-15T05:27:32.427Z,58.20
2019-01-15T05:30:13.173Z,58.40
2019-01-15T05:32:54.673Z,58.50
2019-01-15T05:35:36.177Z,58.30
2019-01-15T05:38:17.444Z,58.00
2019-01-15T05:40:58.039Z,58.10
2019-01-15T05:43:38.769Z,58.20
2019-01-15T05:46:19.621Z,58.20
2019-01-15T05:49:00.931Z,58.30
2019-01-15T05:51:43.699Z,58.20
2019-01-15T05:54:24.403Z,58.40
2019-01-15T05:57:05.097Z,58.10
2019-01-15T05:59:45.955Z,57.70
2019-01-15T06:02:27.110Z,57.90
2019-01-15T06:05:08.436Z,56.40
2019-01-15T06:07:49.340Z,55.40
2019-01-15T06:10:30.162Z,55.40
2019-01-15T06:13:10.699Z,55.10
2019-01-15T06:15:51.896Z,54.90
2019-01-15T06:18:32.587Z,55.90
2019-01-15T06:21:13.733Z,60.20
2019-01-15T06:23:54.675Z,63.50
2019-01-15T06:26:35.510Z,63.30
2019-01-15T06:29:16.810Z,59.90
2019-01-15T06:31:58.245Z,58.90
2019-01-15T06:34:38.422Z,59.20
2019-01-15T06:37:19.175Z,59.30
2019-01-15T06:40:00.471Z,59.10
2019-01-15T06:42:40.976Z,59.00
2019-01-15T06:45:21.535Z,58.70
2019-01-15T06:48:02.685Z,58.50
2019-01-15T06:50:44.027Z,58.20
2019-01-15T06:53:25.431Z,58.30
2019-01-15T06:56:06.039Z,58.90
2019-01-15T06:58:47.331Z,59.30
2019-01-15T07:01:28.857Z,59.30
2019-01-15T07:04:10.030Z,58.80
2019-01-15T07:06:51.444Z,58.20
2019-01-15T07:09:32.252Z,57.60
2019-01-15T07:12:13.646Z,57.20
2019-01-15T07:14:54.381Z,56.90
2019-01-15T07:17:33.843Z,56.80
2019-01-15T07:20:15.008Z,56.80
2019-01-15T07:22:55.690Z,56.90
2019-01-15T07:25:36.834Z,57.50
2019-01-15T07:28:18.397Z,58.80
2019-01-15T07:30:59.821Z,61.30
2019-01-15T07:33:40.586Z,64.90
2019-01-15T07:36:21.499Z,65.80
2019-01-15T07:39:01.307Z,66.90
2019-01-15T07:41:42.505Z,67.70
2019-01-15T07:44:23.479Z,68.40
2019-01-15T07:47:04.598Z,69.10
2019-01-15T07:49:46.151Z,69.40
2019-01-15T07:52:27.309Z,69.70
2019-01-15T07:55:07.280Z,69.80
2019-01-15T07:57:48.120Z,70.50
2019-01-15T08:00:29.415Z,70.80
2019-01-15T08:03:10.548Z,70.70
2019-01-15T08:05:52.003Z,70.90
2019-01-15T08:08:33.037Z,71.30
2019-01-15T08:11:14.343Z,71.90
2019-01-15T08:13:55.671Z,72.50
2019-01-15T08:16:36.884Z,72.80
2019-01-15T08:19:18.198Z,73.60
2019-01-15T08:21:59.277Z,74.80
2019-01-15T08:24:40.223Z,75.30
2019-01-15T08:27:21.562Z,76.00
2019-01-15T08:30:02.623Z,76.70
2019-01-15T08:32:43.653Z,77.30
2019-01-15T08:35:25.061Z,76.90
2019-01-15T08:38:06.176Z,77.30
2019-01-15T08:40:46.932Z,79.40
2019-01-15T08:43:28.064Z,80.60
2019-01-15T08:46:08.737Z,81.20
2019-01-15T08:48:50.171Z,81.70
2019-01-15T08:51:30.883Z,82.00
2019-01-15T08:54:11.369Z,82.30
2019-01-15T08:56:52.775Z,82.50
2019-01-15T08:59:34.019Z,82.80
2019-01-15T09:02:15.107Z,82.80
2019-01-15T09:04:56.799Z,82.30
2019-01-15T09:07:37.743Z,80.70
2019-01-15T09:10:18.579Z,77.80
2019-01-15T09:12:59.607Z,75.80
2019-01-15T09:15:39.117Z,74.70
2019-01-15T09:18:19.977Z,73.50
2019-01-15T09:21:00.808Z,72.40
2019-01-15T09:23:41.917Z,71.20
2019-01-15T09:26:22.880Z,70.70
2019-01-15T09:29:03.661Z,70.10
2019-01-15T09:31:45.213Z,69.30
2019-01-15T09:34:26.493Z,68.90
2019-01-15T09:37:09.658Z,68.50
2019-01-15T10:15:33.400Z,68.50
2019-01-15T10:18:14.849Z,75.70
2019-01-15T10:20:55.537Z,74.90
2019-01-15T10:23:36.492Z,74.00
2019-01-15T10:26:17.221Z,73.20
2019-01-15T10:34:35.483Z,73.70
2019-01-15T10:37:16.119Z,69.30
2019-01-15T10:39:56.781Z,66.90
2019-01-15T10:42:37.524Z,65.40
2019-01-15T10:45:19.314Z,62.70
2019-01-15T10:48:00.207Z,61.90
2019-01-15T10:50:41.168Z,61.80
2019-01-15T10:53:21.876Z,63.70
2019-01-15T10:56:03.199Z,61.90
2019-01-15T13:30:18.564Z,59.80
2019-01-15T13:33:24.465Z,88.60
2019-01-15T13:36:26.927Z,87.60
2019-01-15T13:39:26.686Z,86.70
2019-01-15T13:42:26.931Z,86.00
2019-01-15T13:45:26.661Z,86.00
2019-01-15T13:48:17.120Z,86.30
2019-01-15T13:51:16.226Z,86.20
2019-01-15T13:54:22.197Z,86.30
2019-01-15T13:57:22.425Z,86.20
2019-01-15T14:00:15.067Z,86.10
2019-01-15T14:03:13.450Z,86.40
2019-01-15T14:06:12.998Z,86.50
2019-01-15T14:09:12.537Z,86.20
2019-01-15T14:12:12.449Z,86.40
2019-01-15T14:15:12.766Z,86.40
2019-01-15T14:18:01.037Z,86.10
2019-01-15T14:21:08.411Z,86.80
2019-01-15T14:24:11.858Z,87.20
2019-01-15T14:27:12.055Z,87.30
2019-01-15T14:30:04.985Z,87.30
2019-01-15T14:33:12.365Z,87.20
2019-01-15T14:36:12.352Z,87.40
2019-01-15T14:39:11.914Z,87.70
2019-01-15T14:42:15.340Z,87.60
2019-01-15T14:45:11.713Z,87.90
2019-01-15T14:48:11.261Z,87.90
2019-01-15T14:51:17.592Z,88.00
2019-01-15T14:54:17.209Z,89.00
2019-01-15T14:57:12.011Z,89.20
2019-01-15T15:00:12.321Z,89.00
2019-01-15T15:03:05.522Z,89.10
2019-01-15T15:06:05.775Z,89.00
2019-01-15T15:09:05.310Z,88.90
2019-01-15T15:11:59.702Z,89.40
2019-01-15T15:14:59.969Z,90.00
2019-01-15T15:17:58.821Z,90.00
2019-01-15T15:21:05.192Z,90.00
2019-01-15T15:24:08.064Z,90.10
2019-01-15T15:26:58.430Z,89.90
2019-01-15T15:30:04.538Z,89.90
2019-01-15T15:33:03.522Z,90.20
2019-01-15T15:36:03.706Z,90.40
2019-01-15T15:42:28.593Z,90.50
2019-01-15T15:45:28.765Z,90.50
2019-01-15T15:48:28.023Z,90.30
2019-01-15T15:51:27.702Z,90.70
2019-01-15T15:54:28.041Z,91.00
2019-01-15T15:57:28.173Z,91.10
2019-01-15T16:03:29.018Z,91.70
2019-01-15T16:06:24.007Z,91.50
2019-01-15T16:39:09.287Z,92.30
2019-01-15T17:17:57.298Z,92.20
2019-01-15T17:20:57.439Z,91.70
2019-01-15T17:23:56.177Z,91.60
2019-01-15T17:27:03.494Z,91.60
2019-01-15T17:30:03.304Z,91.60
2019-01-15T17:33:04.414Z,91.60
2019-01-15T17:36:10.191Z,91.50
2019-01-15T17:39:10.014Z,91.50
2019-01-15T17:42:16.036Z,91.50
2019-01-15T17:45:16.129Z,91.40
2019-01-15T17:48:22.108Z,91.40
2019-01-15T17:51:21.735Z,91.40
2019-01-15T17:57:20.345Z,91.50
2019-01-15T18:03:36.030Z,91.40
2019-01-15T18:06:36.731Z,91.60
2019-01-15T18:09:37.054Z,91.50
2019-01-15T18:12:36.695Z,91.60
2019-01-15T18:15:30.877Z,91.50
2019-01-15T18:18:30.536Z,91.50
2019-01-15T18:21:36.258Z,91.80
2019-01-15T18:24:36.972Z,92.20
2019-01-15T18:27:36.590Z,92.30
2019-01-15T18:30:42.067Z,92.20
2019-01-15T18:33:41.963Z,92.00
2019-01-15T18:36:41.836Z,92.00
2019-01-15T18:39:40.809Z,92.30
2019-01-15T18:42:48.099Z,92.40
2019-01-15T18:45:47.585Z,92.40
2019-01-15T18:48:47.129Z,92.40
2019-01-15T18:51:46.801Z,92.40
2019-01-15T18:54:46.287Z,92.40
2019-01-15T18:57:46.699Z,92.50
2019-01-15T19:00:47.130Z,92.50
2019-01-15T19:03:47.555Z,92.50
2019-01-15T19:06:47.788Z,92.40
2019-01-15T19:09:54.059Z,92.30
2019-01-15T19:12:42.694Z,92.50
2019-01-15T19:15:38.008Z,92.60
2019-01-15T19:18:37.658Z,92.60
2019-01-15T19:21:37.408Z,92.70
2019-01-15T19:24:37.099Z,92.70
2019-01-15T19:27:36.959Z,92.60
2019-01-15T19:30:43.075Z,92.70
2019-01-15T19:33:42.654Z,92.80
2019-01-15T19:36:37.821Z,92.80
2019-01-15T19:39:37.526Z,92.80
2019-01-15T19:45:56.558Z,93.00
2019-01-15T19:48:56.229Z,93.00
2019-01-15T19:51:55.708Z,93.20
2019-01-15T19:54:55.500Z,93.10
2019-01-15T20:03:54.860Z,93.00
2019-01-15T20:07:00.877Z,93.00
2019-01-15T20:10:01.264Z,93.10
2019-01-15T20:13:00.940Z,93.10
2019-01-15T20:16:01.270Z,93.10
2019-01-15T20:19:03.782Z,93.10
2019-01-15T20:22:09.299Z,93.10
2019-01-15T20:24:59.076Z,93.10
2019-01-15T20:28:02.520Z,93.20
2019-01-15T20:31:02.856Z,93.10
2019-01-15T20:34:01.920Z,92.90
2019-01-15T20:37:01.583Z,92.90
2019-01-15T20:40:01.149Z,92.80
2019-01-15T20:43:01.116Z,92.80
2019-01-15T20:45:57.026Z,93.10
2019-01-15T20:57:52.018Z,92.70
2019-01-15T21:00:58.233Z,92.60
2019-01-15T21:03:58.282Z,92.60
2019-01-15T21:09:42.841Z,92.50
2019-01-15T21:12:45.666Z,92.50
2019-01-15T21:15:51.386Z,92.40
2019-01-15T21:18:57.964Z,92.30
2019-01-15T21:21:46.719Z,92.20
2019-01-15T21:24:54.157Z,92.10
2019-01-15T21:27:54.600Z,92.10
2019-01-15T21:30:54.367Z,92.00
2019-01-15T21:33:52.930Z,91.70
2019-01-15T21:36:58.616Z,91.60
2019-01-15T21:40:01.677Z,91.60
2019-01-15T21:43:01.208Z,91.50
2019-01-15T21:45:55.754Z,91.30
2019-01-15T21:48:55.842Z,91.30
2019-01-15T21:52:01.421Z,91.40
2019-01-15T21:55:01.474Z,91.10
2019-01-15T21:58:04.562Z,91.10
2019-01-15T22:01:07.737Z,91.10
2019-01-15T22:04:07.359Z,91.10
2019-01-15T22:07:07.733Z,91.10
2019-01-15T22:10:07.443Z,91.10
2019-01-15T22:13:07.625Z,91.10
2019-01-15T22:16:07.142Z,91.10
2019-01-15T22:19:14.450Z,91.10
2019-01-15T22:22:14.279Z,91.10
2019-01-15T22:25:13.846Z,91.00
2019-01-15T22:28:13.760Z,90.80
2019-01-15T22:31:13.364Z,90.80
2019-01-15T22:34:12.934Z,90.80
2019-01-15T22:37:12.499Z,90.80
2019-01-15T22:43:19.118Z,90.70
2019-01-15T22:46:19.457Z,91.00
2019-01-15T22:49:19.092Z,90.70
2019-01-15T22:52:18.836Z,90.50
2019-01-15T23:01:23.344Z,90.50
2019-01-15T23:04:23.456Z,90.50
2019-01-15T23:07:24.658Z,90.40
2019-01-15T23:10:31.256Z,90.40
2019-01-15T23:13:31.000Z,90.30
2019-01-15T23:16:23.661Z,90.20
2019-01-15T23:19:24.903Z,90.20
2019-01-15T23:22:24.892Z,90.20
2019-01-15T23:25:24.641Z,90.20
2019-01-15T23:28:27.320Z,90.10
2019-01-15T23:34:29.971Z,90.10
2019-01-15T23:37:33.087Z,90.00
2019-01-15T23:43:53.007Z,90.10
2019-01-15T23:46:53.304Z,90.00
2019-01-15T23:52:56.297Z,90.10
2019-01-15T23:55:58.536Z,90.10
2019-01-15T23:58:58.281Z,90.20
